sensor_id;sensor_type;location;lat;lon;timestamp;pressure;altitude;pressure_sealevel;temperature;humidity
66560;BME280;53413;49.878;8.142;2023-01-08T00:02:00;99232.34;;;9.19;100.00
66560;BME280;53413;49.878;8.142;2023-01-08T00:04:26;99230.66;;;9.18;100.00
66560;BME280;53413;49.878;8.142;2023-01-08T00:06:51;99231.41;;;9.20;100.00
66560;BME280;53413;49.878;8.142;2023-01-08T00:09:17;99230.50;;;9.21;100.00
66560;BME280;53413;49.878;8.142;2023-01-08T00:11:43;99232.34;;;9.19;100.00
66560;BME280;53413;49.878;8.142;2023-01-08T00:14:09;99237.63;;;9.18;100.00
66560;BME280;53413;49.878;8.142;2023-01-08T00:16:34;99230.91;;;9.12;100.00
66560;BME280;53413;49.878;8.142;2023-01-08T00:19:00;99233.03;;;9.04;100.00
66560;BME280;53413;49.878;8.142;2023-01-08T00:21:25;99218.59;;;8.95;100.00
66560;BME280;53413;49.878;8.142;2023-01-08T00:23:50;99216.13;;;8.92;100.00
66560;BME280;53413;49.878;8.142;2023-01-08T00:26:16;99211.81;;;8.91;100.00
66560;BME280;53413;49.878;8.142;2023-01-08T00:28:41;99216.91;;;8.94;100.00
66560;BME280;53413;49.878;8.142;2023-01-08T00:31:09;99213.84;;;9.05;100.00
66560;BME280;53413;49.878;8.142;2023-01-08T00:33:35;99206.47;;;9.13;100.00
66560;BME280;53413;49.878;8.142;2023-01-08T00:36:06;99199.34;;;9.17;100.00
66560;BME280;53413;49.878;8.142;2023-01-08T00:38:32;99195.13;;;9.14;100.00
66560;BME280;53413;49.878;8.142;2023-01-08T00:40:58;99196.03;;;9.13;100.00
66560;BME280;53413;49.878;8.142;2023-01-08T00:43:23;99190.94;;;9.10;100.00
66560;BME280;53413;49.878;8.142;2023-01-08T00:45:48;99194.47;;;9.09;100.00
66560;BME280;53413;49.878;8.142;2023-01-08T00:48:17;99183.97;;;9.11;100.00
66560;BME280;53413;49.878;8.142;2023-01-08T00:50:43;99175.19;;;9.12;100.00
66560;BME280;53413;49.878;8.142;2023-01-08T00:53:08;99180.25;;;9.15;100.00
66560;BME280;53413;49.878;8.142;2023-01-08T00:55:33;99187.84;;;9.21;100.00
66560;BME280;53413;49.878;8.142;2023-01-08T00:57:58;99176.81;;;9.33;100.00
66560;BME280;53413;49.878;8.142;2023-01-08T01:00:24;99179.06;;;9.41;100.00
66560;BME280;53413;49.878;8.142;2023-01-08T01:02:49;99179.69;;;9.46;100.00
66560;BME280;53413;49.878;8.142;2023-01-08T01:05:15;99175.81;;;9.55;100.00
66560;BME280;53413;49.878;8.142;2023-01-08T01:07:42;99176.50;;;9.59;100.00
66560;BME280;53413;49.878;8.142;2023-01-08T01:10:08;99178.97;;;9.62;100.00
66560;BME280;53413;49.878;8.142;2023-01-08T01:12:36;99177.13;;;9.64;100.00
66560;BME280;53413;49.878;8.142;2023-01-08T01:15:03;99177.84;;;9.67;100.00
66560;BME280;53413;49.878;8.142;2023-01-08T01:17:29;99180.44;;;9.67;100.00
66560;BME280;53413;49.878;8.142;2023-01-08T01:19:54;99182.97;;;9.69;100.00
66560;BME280;53413;49.878;8.142;2023-01-08T01:22:19;99180.31;;;9.70;100.00
66560;BME280;53413;49.878;8.142;2023-01-08T01:24:45;99180.00;;;9.77;100.00
66560;BME280;53413;49.878;8.142;2023-01-08T01:27:10;99188.53;;;9.80;100.00
66560;BME280;53413;49.878;8.142;2023-01-08T01:29:35;99185.78;;;9.83;100.00
66560;BME280;53413;49.878;8.142;2023-01-08T01:32:01;99178.63;;;9.87;100.00
66560;BME280;53413;49.878;8.142;2023-01-08T01:34:26;99170.03;;;9.85;100.00
66560;BME280;53413;49.878;8.142;2023-01-08T01:36:51;99174.50;;;9.83;100.00
66560;BME280;53413;49.878;8.142;2023-01-08T01:39:17;99174.53;;;9.81;100.00
66560;BME280;53413;49.878;8.142;2023-01-08T01:41:45;99176.31;;;9.81;100.00
66560;BME280;53413;49.878;8.142;2023-01-08T01:44:34;99185.00;;;9.81;100.00
66560;BME280;53413;49.878;8.142;2023-01-08T01:49:42;99184.81;;;9.86;100.00
66560;BME280;53413;49.878;8.142;2023-01-08T01:52:10;99180.31;;;9.88;100.00
66560;BME280;53413;49.878;8.142;2023-01-08T01:54:36;99178.56;;;9.89;100.00
66560;BME280;53413;49.878;8.142;2023-01-08T01:57:02;99180.31;;;9.88;100.00
66560;BME280;53413;49.878;8.142;2023-01-08T01:59:28;99182.09;;;9.88;100.00
66560;BME280;53413;49.878;8.142;2023-01-08T02:01:55;99179.50;;;9.88;100.00
66560;BME280;53413;49.878;8.142;2023-01-08T02:04:20;99171.94;;;9.81;100.00
66560;BME280;53413;49.878;8.142;2023-01-08T02:12:10;99172.47;;;9.70;100.00
66560;BME280;53413;49.878;8.142;2023-01-08T02:17:39;99169.75;;;9.54;100.00
66560;BME280;53413;49.878;8.142;2023-01-08T02:20:20;99156.94;;;9.48;100.00
66560;BME280;53413;49.878;8.142;2023-01-08T02:26:05;99160.00;;;9.39;100.00
66560;BME280;53413;49.878;8.142;2023-01-08T02:28:37;99165.50;;;9.33;100.00
66560;BME280;53413;49.878;8.142;2023-01-08T02:31:04;99160.34;;;9.31;100.00
66560;BME280;53413;49.878;8.142;2023-01-08T02:33:31;99162.13;;;9.31;100.00
66560;BME280;53413;49.878;8.142;2023-01-08T02:38:49;99150.25;;;9.23;100.00
66560;BME280;53413;49.878;8.142;2023-01-08T02:41:16;99144.09;;;9.24;100.00
66560;BME280;53413;49.878;8.142;2023-01-08T02:43:49;99136.22;;;9.26;100.00
66560;BME280;53413;49.878;8.142;2023-01-08T02:46:18;99134.44;;;9.27;100.00
66560;BME280;53413;49.878;8.142;2023-01-08T02:48:56;99126.50;;;9.28;100.00
66560;BME280;53413;49.878;8.142;2023-01-08T02:51:28;99111.53;;;9.32;100.00
66560;BME280;53413;49.878;8.142;2023-01-08T02:53:58;99103.69;;;9.32;100.00
66560;BME280;53413;49.878;8.142;2023-01-08T02:56:52;99102.69;;;9.34;100.00
66560;BME280;53413;49.878;8.142;2023-01-08T02:59:20;99102.59;;;9.36;100.00
66560;BME280;53413;49.878;8.142;2023-01-08T03:01:47;99098.16;;;9.38;100.00
66560;BME280;53413;49.878;8.142;2023-01-08T03:04:16;99089.41;;;9.39;100.00
66560;BME280;53413;49.878;8.142;2023-01-08T03:06:43;99089.41;;;9.39;100.00
66560;BME280;53413;49.878;8.142;2023-01-08T03:09:09;99081.56;;;9.39;100.00
66560;BME280;53413;49.878;8.142;2023-01-08T03:11:55;99081.56;;;9.39;100.00
66560;BME280;53413;49.878;8.142;2023-01-08T03:17:18;99081.56;;;9.39;100.00
66560;BME280;53413;49.878;8.142;2023-01-08T03:19:59;99084.09;;;9.40;100.00
66560;BME280;53413;49.878;8.142;2023-01-08T03:22:26;99082.38;;;9.39;100.00
66560;BME280;53413;49.878;8.142;2023-01-08T03:24:53;99081.47;;;9.40;100.00
66560;BME280;53413;49.878;8.142;2023-01-08T03:27:23;99084.03;;;9.42;100.00
66560;BME280;53413;49.878;8.142;2023-01-08T03:29:51;99082.34;;;9.41;100.00
66560;BME280;53413;49.878;8.142;2023-01-08T03:32:20;99078.03;;;9.40;100.00
66560;BME280;53413;49.878;8.142;2023-01-08T03:34:49;99079.72;;;9.41;100.00
66560;BME280;53413;49.878;8.142;2023-01-08T03:37:19;99074.50;;;9.41;100.00
66560;BME280;53413;49.878;8.142;2023-01-08T03:40:09;99068.56;;;9.37;100.00
66560;BME280;53413;49.878;8.142;2023-01-08T03:42:36;99069.53;;;9.35;100.00
66560;BME280;53413;49.878;8.142;2023-01-08T03:45:02;99067.00;;;9.33;100.00
66560;BME280;53413;49.878;8.142;2023-01-08T03:47:28;99061.09;;;9.30;100.00
66560;BME280;53413;49.878;8.142;2023-01-08T03:49:58;99045.41;;;9.30;100.00
66560;BME280;53413;49.878;8.142;2023-01-08T03:52:29;99048.25;;;9.25;100.00
66560;BME280;53413;49.878;8.142;2023-01-08T03:54:55;99043.84;;;9.26;100.00
66560;BME280;53413;49.878;8.142;2023-01-08T03:57:21;99037.06;;;9.21;100.00
66560;BME280;53413;49.878;8.142;2023-01-08T03:59:47;99032.84;;;9.19;100.00
66560;BME280;53413;49.878;8.142;2023-01-08T04:02:12;99033.84;;;9.16;100.00
66560;BME280;53413;49.878;8.142;2023-01-08T04:04:38;99025.22;;;9.14;100.00
66560;BME280;53413;49.878;8.142;2023-01-08T04:07:03;99024.44;;;9.12;100.00
66560;BME280;53413;49.878;8.142;2023-01-08T04:09:29;99020.22;;;9.09;100.00
66560;BME280;53413;49.878;8.142;2023-01-08T04:11:54;99016.75;;;9.09;100.00
66560;BME280;53413;49.878;8.142;2023-01-08T04:14:19;99014.22;;;9.07;100.00
66560;BME280;53413;49.878;8.142;2023-01-08T04:16:45;99021.97;;;9.09;100.00
66560;BME280;53413;49.878;8.142;2023-01-08T04:19:11;99027.06;;;9.12;100.00
66560;BME280;53413;49.878;8.142;2023-01-08T04:21:36;99035.00;;;9.11;100.00
66560;BME280;53413;49.878;8.142;2023-01-08T04:24:02;99036.75;;;9.10;100.00
66560;BME280;53413;49.878;8.142;2023-01-08T04:26:28;99029.66;;;9.12;100.00
66560;BME280;53413;49.878;8.142;2023-01-08T04:28:53;99021.59;;;9.17;100.00
66560;BME280;53413;49.878;8.142;2023-01-08T04:31:18;99022.38;;;9.19;100.00
66560;BME280;53413;49.878;8.142;2023-01-08T04:33:43;99022.69;;;9.13;100.00
66560;BME280;53413;49.878;8.142;2023-01-08T04:36:09;99025.22;;;9.14;100.00
66560;BME280;53413;49.878;8.142;2023-01-08T04:38:34;99019.22;;;9.12;100.00
66560;BME280;53413;49.878;8.142;2023-01-08T04:41:01;99023.53;;;9.13;100.00
66560;BME280;53413;49.878;8.142;2023-01-08T04:43:27;99024.59;;;9.09;100.00
66560;BME280;53413;49.878;8.142;2023-01-08T04:45:56;99018.53;;;9.08;100.00
66560;BME280;53413;49.878;8.142;2023-01-08T04:48:22;99024.59;;;9.09;100.00
66560;BME280;53413;49.878;8.142;2023-01-08T04:50:47;99024.53;;;9.11;100.00
66560;BME280;53413;49.878;8.142;2023-01-08T04:53:12;99021.13;;;9.08;100.00
66560;BME280;53413;49.878;8.142;2023-01-08T04:55:38;99015.13;;;9.06;100.00
66560;BME280;53413;49.878;8.142;2023-01-08T04:58:03;99022.13;;;9.06;100.00
66560;BME280;53413;49.878;8.142;2023-01-08T05:00:28;99021.28;;;9.05;100.00
66560;BME280;53413;49.878;8.142;2023-01-08T05:02:54;99020.44;;;9.05;100.00
66560;BME280;53413;49.878;8.142;2023-01-08T05:05:19;99014.44;;;9.03;100.00
66560;BME280;53413;49.878;8.142;2023-01-08T05:07:44;99011.81;;;9.03;100.00
66560;BME280;53413;49.878;8.142;2023-01-08T05:10:10;99014.53;;;9.01;100.00
66560;BME280;53413;49.878;8.142;2023-01-08T05:12:35;99018.06;;;9.00;100.00
66560;BME280;53413;49.878;8.142;2023-01-08T05:15:01;99016.41;;;8.98;100.00
66560;BME280;53413;49.878;8.142;2023-01-08T05:17:26;99018.28;;;8.96;100.00
66560;BME280;53413;49.878;8.142;2023-01-08T05:19:51;99023.50;;;8.96;100.00
66560;BME280;53413;49.878;8.142;2023-01-08T05:22:17;99022.63;;;8.95;100.00
66560;BME280;53413;49.878;8.142;2023-01-08T05:24:42;99026.03;;;8.97;100.00
66560;BME280;53413;49.878;8.142;2023-01-08T05:27:07;99022.56;;;8.97;100.00
66560;BME280;53413;49.878;8.142;2023-01-08T05:29:33;99014.66;;;8.98;100.00
66560;BME280;53413;49.878;8.142;2023-01-08T05:31:58;99004.44;;;8.93;100.00
66560;BME280;53413;49.878;8.142;2023-01-08T05:34:23;99002.75;;;8.92;100.00
66560;BME280;53413;49.878;8.142;2023-01-08T05:36:48;99006.41;;;8.88;100.00
66560;BME280;53413;49.878;8.142;2023-01-08T05:39:14;99008.19;;;8.88;100.00
66560;BME280;53413;49.878;8.142;2023-01-08T05:41:39;98997.97;;;8.83;100.00
66560;BME280;53413;49.878;8.142;2023-01-08T05:44:04;99009.47;;;8.79;100.00
66560;BME280;53413;49.878;8.142;2023-01-08T05:46:30;99000.00;;;8.76;100.00
66560;BME280;53413;49.878;8.142;2023-01-08T05:48:56;99004.25;;;8.79;100.00
66560;BME280;53413;49.878;8.142;2023-01-08T05:51:21;99000.56;;;8.83;100.00
66560;BME280;53413;49.878;8.142;2023-01-08T05:53:47;98994.41;;;8.84;100.00
66560;BME280;53413;49.878;8.142;2023-01-08T05:56:12;99004.09;;;8.82;100.00
66560;BME280;53413;49.878;8.142;2023-01-08T05:58:38;99011.03;;;8.83;100.00
66560;BME280;53413;49.878;8.142;2023-01-08T06:01:04;99000.56;;;8.83;100.00
66560;BME280;53413;49.878;8.142;2023-01-08T06:03:30;99000.56;;;8.83;100.00
66560;BME280;53413;49.878;8.142;2023-01-08T06:06:00;98997.97;;;8.83;100.00
66560;BME280;53413;49.878;8.142;2023-01-08T06:08:26;98992.88;;;8.80;100.00
66560;BME280;53413;49.878;8.142;2023-01-08T06:10:51;98990.47;;;8.75;100.00
66560;BME280;53413;49.878;8.142;2023-01-08T06:13:16;98994.06;;;8.73;100.00
66560;BME280;53413;49.878;8.142;2023-01-08T06:15:42;98989.78;;;8.72;100.00
66560;BME280;53413;49.878;8.142;2023-01-08T06:18:07;98981.94;;;8.72;100.00
66560;BME280;53413;49.878;8.142;2023-01-08T06:20:32;98976.78;;;8.70;100.00
66560;BME280;53413;49.878;8.142;2023-01-08T06:22:58;98976.88;;;8.69;100.00
66560;BME280;53413;49.878;8.142;2023-01-08T06:25:23;98987.31;;;8.69;100.00
66560;BME280;53413;49.878;8.142;2023-01-08T06:27:50;98983.84;;;8.68;100.00
66560;BME280;53413;49.878;8.142;2023-01-08T06:30:16;98976.09;;;8.67;100.00
66560;BME280;53413;49.878;8.142;2023-01-08T06:32:41;98984.75;;;8.67;100.00
66560;BME280;53413;49.878;8.142;2023-01-08T06:35:06;98997.63;;;8.72;100.00
66560;BME280;53413;49.878;8.142;2023-01-08T06:37:32;98993.22;;;8.72;100.00
66560;BME280;53413;49.878;8.142;2023-01-08T06:39:57;98993.94;;;8.76;100.00
66560;BME280;53413;49.878;8.142;2023-01-08T06:42:22;98992.22;;;8.75;100.00
66560;BME280;53413;49.878;8.142;2023-01-08T06:44:48;98999.94;;;8.78;100.00
66560;BME280;53413;49.878;8.142;2023-01-08T06:47:13;98999.00;;;8.79;100.00
66560;BME280;53413;49.878;8.142;2023-01-08T06:49:38;98994.84;;;8.75;100.00
66560;BME280;53413;49.878;8.142;2023-01-08T06:52:04;99005.28;;;8.75;100.00
66560;BME280;53413;49.878;8.142;2023-01-08T06:54:29;99004.50;;;8.73;100.00
66560;BME280;53413;49.878;8.142;2023-01-08T06:56:55;99001.97;;;8.71;100.00
66560;BME280;53413;49.878;8.142;2023-01-08T06:59:21;99004.69;;;8.70;100.00
66560;BME280;53413;49.878;8.142;2023-01-08T07:01:46;99003.69;;;8.72;100.00
66560;BME280;53413;49.878;8.142;2023-01-08T07:04:11;99001.91;;;8.73;100.00
66560;BME280;53413;49.878;8.142;2023-01-08T07:06:36;98999.28;;;8.73;100.00
66560;BME280;53413;49.878;8.142;2023-01-08T07:09:02;99007.91;;;8.75;100.00
66560;BME280;53413;49.878;8.142;2023-01-08T07:11:27;99003.53;;;8.75;100.00
66560;BME280;53413;49.878;8.142;2023-01-08T07:13:54;99007.06;;;8.74;100.00
66560;BME280;53413;49.878;8.142;2023-01-08T07:16:19;99001.84;;;8.74;100.00
66560;BME280;53413;49.878;8.142;2023-01-08T07:18:44;99006.06;;;8.77;100.00
66560;BME280;53413;49.878;8.142;2023-01-08T07:21:10;99011.28;;;8.77;100.00
66560;BME280;53413;49.878;8.142;2023-01-08T07:23:35;99013.00;;;8.78;100.00
66560;BME280;53413;49.878;8.142;2023-01-08T07:26:03;99009.53;;;8.77;100.00
66560;BME280;53413;49.878;8.142;2023-01-08T07:28:29;99008.69;;;8.77;100.00
66560;BME280;53413;49.878;8.142;2023-01-08T07:30:55;99018.34;;;8.75;100.00
66560;BME280;53413;49.878;8.142;2023-01-08T07:33:20;99014.81;;;8.76;100.00
66560;BME280;53413;49.878;8.142;2023-01-08T07:35:53;99015.69;;;8.76;100.00
66560;BME280;53413;49.878;8.142;2023-01-08T07:38:19;99023.44;;;8.78;100.00
66560;BME280;53413;49.878;8.142;2023-01-08T07:40:44;99023.53;;;8.76;100.00
66560;BME280;53413;49.878;8.142;2023-01-08T07:43:10;99026.13;;;8.76;100.00
66560;BME280;53413;49.878;8.142;2023-01-08T07:45:37;99016.53;;;8.77;100.00
66560;BME280;53413;49.878;8.142;2023-01-08T07:48:03;99025.13;;;8.79;100.00
66560;BME280;53413;49.878;8.142;2023-01-08T07:50:28;99013.78;;;8.80;100.00
66560;BME280;53413;49.878;8.142;2023-01-08T07:52:59;99015.38;;;8.83;100.00
66560;BME280;53413;49.878;8.142;2023-01-08T07:55:26;99009.88;;;8.89;100.00
66560;BME280;53413;49.878;8.142;2023-01-08T07:57:52;99006.34;;;8.90;100.00
66560;BME280;53413;49.878;8.142;2023-01-08T08:00:18;99008.88;;;8.91;100.00
66560;BME280;53413;49.878;8.142;2023-01-08T08:02:44;99001.19;;;8.88;100.00
66560;BME280;53413;49.878;8.142;2023-01-08T08:05:09;99000.25;;;8.89;100.00
66560;BME280;53413;49.878;8.142;2023-01-08T08:07:34;99012.41;;;8.90;100.00
66560;BME280;53413;49.878;8.142;2023-01-08T08:10:01;99022.88;;;8.90;100.00
66560;BME280;53413;49.878;8.142;2023-01-08T08:12:26;99016.81;;;8.90;100.00
66560;BME280;53413;49.878;8.142;2023-01-08T08:14:51;99029.91;;;8.88;100.00
66560;BME280;53413;49.878;8.142;2023-01-08T08:17:16;99026.38;;;8.89;100.00
66560;BME280;53413;49.878;8.142;2023-01-08T08:19:42;99022.78;;;8.92;100.00
66560;BME280;53413;49.878;8.142;2023-01-08T08:22:11;99017.50;;;8.93;100.00
66560;BME280;53413;49.878;8.142;2023-01-08T08:24:37;99028.78;;;8.94;100.00
66560;BME280;53413;49.878;8.142;2023-01-08T08:27:02;99020.91;;;8.96;100.00
66560;BME280;53413;49.878;8.142;2023-01-08T08:29:27;99026.25;;;8.92;100.00
66560;BME280;53413;49.878;8.142;2023-01-08T08:31:53;99026.16;;;8.94;100.00
66560;BME280;53413;49.878;8.142;2023-01-08T08:34:18;99033.09;;;8.95;100.00
66560;BME280;53413;49.878;8.142;2023-01-08T08:36:46;99027.03;;;8.95;100.00
66560;BME280;53413;49.878;8.142;2023-01-08T08:39:12;99020.13;;;8.93;100.00
66560;BME280;53413;49.878;8.142;2023-01-08T08:41:37;99024.56;;;8.91;100.00
66560;BME280;53413;49.878;8.142;2023-01-08T08:44:03;99016.72;;;8.91;100.00
66560;BME280;53413;49.878;8.142;2023-01-08T08:46:28;99007.97;;;8.92;100.00
66560;BME280;53413;49.878;8.142;2023-01-08T08:48:54;99018.34;;;8.94;100.00
66560;BME280;53413;49.878;8.142;2023-01-08T08:51:19;99016.59;;;8.95;100.00
66560;BME280;53413;49.878;8.142;2023-01-08T08:53:44;99015.94;;;8.89;100.00
66560;BME280;53413;49.878;8.142;2023-01-08T08:56:10;99018.47;;;8.91;100.00
66560;BME280;53413;49.878;8.142;2023-01-08T08:58:35;99010.56;;;8.92;100.00
66560;BME280;53413;49.878;8.142;2023-01-08T09:01:02;99020.13;;;8.93;100.00
66560;BME280;53413;49.878;8.142;2023-01-08T09:03:28;99022.56;;;8.97;100.00
66560;BME280;53413;49.878;8.142;2023-01-08T09:05:53;99008.66;;;8.96;100.00
66560;BME280;53413;49.878;8.142;2023-01-08T09:08:18;99009.66;;;8.93;100.00
66560;BME280;53413;49.878;8.142;2023-01-08T09:10:44;99006.88;;;8.97;100.00
66560;BME280;53413;49.878;8.142;2023-01-08T09:13:09;99005.81;;;9.01;100.00
66560;BME280;53413;49.878;8.142;2023-01-08T09:15:36;99008.28;;;9.04;100.00
66560;BME280;53413;49.878;8.142;2023-01-08T09:18:01;99012.38;;;9.09;100.00
66560;BME280;53413;49.878;8.142;2023-01-08T09:20:27;99016.69;;;9.11;100.00
66560;BME280;53413;49.878;8.142;2023-01-08T09:22:53;99015.78;;;9.12;100.00
66560;BME280;53413;49.878;8.142;2023-01-08T09:25:18;99012.53;;;9.06;100.00
66560;BME280;53413;49.878;8.142;2023-01-08T09:27:44;99016.75;;;9.09;100.00
66560;BME280;53413;49.878;8.142;2023-01-08T09:30:10;99015.00;;;9.09;100.00
66560;BME280;53413;49.878;8.142;2023-01-08T09:32:35;99015.09;;;9.08;100.00
66560;BME280;53413;49.878;8.142;2023-01-08T09:35:02;99021.00;;;9.12;100.00
66560;BME280;53413;49.878;8.142;2023-01-08T09:37:27;99021.84;;;9.12;100.00
66560;BME280;53413;49.878;8.142;2023-01-08T09:39:53;99012.94;;;9.16;100.00
66560;BME280;53413;49.878;8.142;2023-01-08T09:42:22;99009.22;;;9.20;100.00
66560;BME280;53413;49.878;8.142;2023-01-08T09:44:52;99009.88;;;9.26;100.00
66560;BME280;53413;49.878;8.142;2023-01-08T09:47:44;99012.03;;;9.35;100.00
66560;BME280;53413;49.878;8.142;2023-01-08T09:50:12;99007.09;;;9.46;100.00
66560;BME280;53413;49.878;8.142;2023-01-08T09:52:38;99006.56;;;9.57;100.00
66560;BME280;53413;49.878;8.142;2023-01-08T09:55:11;99002.91;;;9.61;100.00
66560;BME280;53413;49.878;8.142;2023-01-08T09:57:37;99004.94;;;9.72;100.00
66560;BME280;53413;49.878;8.142;2023-01-08T10:00:03;99010.19;;;9.72;100.00
66560;BME280;53413;49.878;8.142;2023-01-08T10:02:30;99005.56;;;9.77;100.00
66560;BME280;53413;49.878;8.142;2023-01-08T10:04:59;99012.56;;;9.77;100.00
66560;BME280;53413;49.878;8.142;2023-01-08T10:07:26;99007.09;;;9.81;100.00
66560;BME280;53413;49.878;8.142;2023-01-08T10:09:53;99006.88;;;9.86;100.00
66560;BME280;53413;49.878;8.142;2023-01-08T10:12:32;99002.47;;;9.86;100.00
66560;BME280;53413;49.878;8.142;2023-01-08T10:15:03;98995.25;;;9.92;100.00
66560;BME280;53413;49.878;8.142;2023-01-08T10:20:11;98989.59;;;9.99;100.00
66560;BME280;53413;49.878;8.142;2023-01-08T10:22:37;98989.53;;;10.01;100.00
66560;BME280;53413;49.878;8.142;2023-01-08T10:25:09;98974.41;;;10.06;100.00
66560;BME280;53413;49.878;8.142;2023-01-08T10:28:01;98972.56;;;10.08;100.00
66560;BME280;53413;49.878;8.142;2023-01-08T10:30:35;98962.94;;;10.09;100.00
66560;BME280;53413;49.878;8.142;2023-01-08T10:33:04;98962.69;;;10.13;100.00
66560;BME280;53413;49.878;8.142;2023-01-08T10:35:35;98965.91;;;10.19;100.00
66560;BME280;53413;49.878;8.142;2023-01-08T10:38:02;98960.78;;;10.33;100.00
66560;BME280;53413;49.878;8.142;2023-01-08T10:40:40;98973.84;;;10.51;100.00
66560;BME280;53413;49.878;8.142;2023-01-08T10:46:16;98968.28;;;11.03;100.00
66560;BME280;53413;49.878;8.142;2023-01-08T10:48:50;98966.94;;;11.12;100.00
66560;BME280;53413;49.878;8.142;2023-01-08T10:51:20;98956.13;;;11.02;100.00
66560;BME280;53413;49.878;8.142;2023-01-08T10:53:48;98950.91;;;10.86;100.00
66560;BME280;53413;49.878;8.142;2023-01-08T10:56:21;98939.25;;;10.76;100.00
66560;BME280;53413;49.878;8.142;2023-01-08T10:58:47;98938.22;;;10.78;100.00
66560;BME280;53413;49.878;8.142;2023-01-08T11:03:41;98919.50;;;11.01;100.00
66560;BME280;53413;49.878;8.142;2023-01-08T11:06:18;98909.63;;;11.20;100.00
66560;BME280;53413;49.878;8.142;2023-01-08T11:08:53;98920.34;;;11.32;100.00
66560;BME280;53413;49.878;8.142;2023-01-08T11:11:20;98919.13;;;11.23;100.00
66560;BME280;53413;49.878;8.142;2023-01-08T11:13:59;98919.28;;;11.20;100.00
66560;BME280;53413;49.878;8.142;2023-01-08T11:16:36;98921.91;;;11.20;100.00
66560;BME280;53413;49.878;8.142;2023-01-08T11:19:04;98917.69;;;11.17;100.00
66560;BME280;53413;49.878;8.142;2023-01-08T11:21:31;98917.38;;;11.07;100.00
66560;BME280;53413;49.878;8.142;2023-01-08T11:24:20;98911.03;;;11.12;100.00
66560;BME280;53413;49.878;8.142;2023-01-08T11:26:51;98906.34;;;11.17;100.00
66560;BME280;53413;49.878;8.142;2023-01-08T11:29:21;98904.13;;;11.25;100.00
66560;BME280;53413;49.878;8.142;2023-01-08T11:37:50;98891.34;;;11.49;100.00
66560;BME280;53413;49.878;8.142;2023-01-08T11:40:27;98885.22;;;11.20;100.00
66560;BME280;53413;49.878;8.142;2023-01-08T11:48:46;98870.03;;;11.11;100.00
66560;BME280;53413;49.878;8.142;2023-01-08T11:51:32;98875.06;;;11.14;100.00
66560;BME280;53413;49.878;8.142;2023-01-08T12:18:27;98831.00;;;10.90;100.00
66560;BME280;53413;49.878;8.142;2023-01-08T12:21:17;98828.00;;;10.82;100.00
66560;BME280;53413;49.878;8.142;2023-01-08T12:31:42;98815.50;;;10.71;100.00
66560;BME280;53413;49.878;8.142;2023-01-08T12:34:11;98812.66;;;10.59;100.00
66560;BME280;53413;49.878;8.142;2023-01-08T12:36:43;98808.63;;;10.54;100.00
66560;BME280;53413;49.878;8.142;2023-01-08T12:39:21;98802.66;;;10.52;100.00
66560;BME280;53413;49.878;8.142;2023-01-08T12:41:51;98799.19;;;10.51;100.00
66560;BME280;53413;49.878;8.142;2023-01-08T12:44:28;98801.03;;;10.49;100.00
66560;BME280;53413;49.878;8.142;2023-01-08T12:46:57;98805.28;;;10.52;100.00
66560;BME280;53413;49.878;8.142;2023-01-08T13:00:42;98782.09;;;10.60;100.00
66560;BME280;53413;49.878;8.142;2023-01-08T13:03:19;98779.69;;;10.71;100.00
66560;BME280;53413;49.878;8.142;2023-01-08T13:05:46;98783.72;;;10.77;100.00
66560;BME280;53413;49.878;8.142;2023-01-08T13:08:38;98784.06;;;10.71;100.00
66560;BME280;53413;49.878;8.142;2023-01-08T13:11:05;98781.56;;;10.69;100.00
66560;BME280;53413;49.878;8.142;2023-01-08T13:13:34;98780.19;;;10.78;100.00
66560;BME280;53413;49.878;8.142;2023-01-08T13:18:30;98775.78;;;10.93;100.00
66560;BME280;53413;49.878;8.142;2023-01-08T13:20:58;98780.66;;;10.85;100.00
66560;BME280;53413;49.878;8.142;2023-01-08T13:23:30;98780.06;;;10.80;100.00
66560;BME280;53413;49.878;8.142;2023-01-08T13:25:58;98775.75;;;10.78;100.00
66560;BME280;53413;49.878;8.142;2023-01-08T13:30:49;98761.34;;;10.71;100.00
66560;BME280;53413;49.878;8.142;2023-01-08T13:38:43;98766.22;;;10.63;100.00
66560;BME280;53413;49.878;8.142;2023-01-08T13:41:31;98759.28;;;10.62;100.00
66560;BME280;53413;49.878;8.142;2023-01-08T13:43:59;98752.25;;;10.62;100.00
66560;BME280;53413;49.878;8.142;2023-01-08T13:46:26;98750.50;;;10.63;100.00
66560;BME280;53413;49.878;8.142;2023-01-08T13:49:04;98751.22;;;10.65;100.00
66560;BME280;53413;49.878;8.142;2023-01-08T13:56:40;98743.56;;;10.76;100.00
66560;BME280;53413;49.878;8.142;2023-01-08T13:59:19;98744.31;;;10.78;100.00
66560;BME280;53413;49.878;8.142;2023-01-08T14:01:54;98744.69;;;10.72;100.00
66560;BME280;53413;49.878;8.142;2023-01-08T14:04:21;98745.91;;;10.67;100.00
66560;BME280;53413;49.878;8.142;2023-01-08T14:06:47;98742.44;;;10.66;100.00
66560;BME280;53413;49.878;8.142;2023-01-08T14:09:20;98744.66;;;10.58;100.00
66560;BME280;53413;49.878;8.142;2023-01-08T14:11:47;98735.06;;;10.58;100.00
66560;BME280;53413;49.878;8.142;2023-01-08T14:14:16;98732.31;;;10.60;100.00
66560;BME280;53413;49.878;8.142;2023-01-08T14:16:43;98722.69;;;10.60;100.00
66560;BME280;53413;49.878;8.142;2023-01-08T14:19:18;98718.84;;;10.66;100.00
66560;BME280;53413;49.878;8.142;2023-01-08T14:21:49;98734.19;;;10.58;100.00
66560;BME280;53413;49.878;8.142;2023-01-08T14:24:16;98729.50;;;10.49;100.00
66560;BME280;53413;49.878;8.142;2023-01-08T14:26:50;98733.38;;;10.41;100.00
66560;BME280;53413;49.878;8.142;2023-01-08T14:29:19;98732.47;;;10.42;100.00
66560;BME280;53413;49.878;8.142;2023-01-08T14:31:46;98732.47;;;10.42;100.00
66560;BME280;53413;49.878;8.142;2023-01-08T14:34:13;98730.69;;;10.43;100.00
66560;BME280;53413;49.878;8.142;2023-01-08T14:36:40;98726.56;;;10.39;100.00
66560;BME280;53413;49.878;8.142;2023-01-08T14:39:23;98721.72;;;10.31;100.00
66560;BME280;53413;49.878;8.142;2023-01-08T14:41:50;98715.63;;;10.16;100.00